Crescent City, FL (32112)

2:07 AM EST on February 23, 2017 (GMT -0500)
PCEM Middleton Burney WeatherSTEM | | Change Station

Elev 68 ft 29.44 °N, 81.52 °W | Updated 4 minutes ago

Rain
Rain
65.0 °F
Feels Like 65.0 °F
N
2.0
Wind Variable Wind from ENE

Today
High -- | Low -- °F
--% Chance of Precip.
Yesterday
High -- | Low -- °F
Precip. -- in
Pressure 29.61 in
Visibility 10.0 miles
Clouds Overcast 1500 ft
Dew Point 64 °F
Humidity 97%
Rainfall 0.05 in
Snow Depth Not available.
6:57 AM 6:21 PM
Waning Crescent, 12% visible
METAR KDED 230655Z AUTO 06012KT 10SM -RA OVC015 19/18 A2961 RMK AO2
Pressure 29.61 in
Visibility 10.0 miles
Clouds Overcast 1500 ft
Dew Point 64 °F
Humidity 97%
Rainfall 0.05 in
Snow Depth Not available.
6:57 AM 6:21 PM
Waning Crescent, 12% visible
METAR KDED 230655Z AUTO 06012KT 10SM -RA OVC015 19/18 A2961 RMK AO2

Get Your Daily Forecast Email!

Thanks for signing up!

Be on the lookout for a verification email in your inbox.

You'll start receiving the daily forecast at 8 AM.

×

10-Day Weather Forecast

Almanac

Astronomy

Feb. 23, 2017 Rise Set
Actual Time
Civil Twilight
Nautical Twilight
Astronomical Twilight
Moon
Length of Visible Light
Length of Day
Tomorrow will be .
, % of the Moon is Illuminated

Today's Extremes

State Highs State Lows

Community

WunderPhotos

Upload Photos

1,962,540 photos uploaded!

WunderBlog® & News

Nearby

Air Quality

  Air Quality AQ Index Pollutant
Not available.

Snow Depth

Station Depth Elevation

Earthquake Activity

City Distance Mag. Time & Date
Minimum magnitude displayed is 2.5.

Coastal Water Temperatures

Place Temperature

Stations

Nearby Weather Stations

Station Location Temp. Windchill Dew Point Humidity Wind Precip. Elev Updated Type
                   

Watches & Warnings

There are currently no watches in effect.